Flight Track Log - Related Links

Times and Time Zones

All times are in EST time to prevent confusion due to time zone crossing. See the USC491 flight status page for this flight to view local times or setup timezone preferences in your user account.

Time Position Orientation Groundspeed Altitude Reporting Facility
EST Latitude Longitude Course Direction KTS MPH feet Rate Location/Type
Fri 08:19:26 AM 32.9667 -96.8333 180° South 85 98 1,000  Level Dallas / Fort Worth TRACON
Fri 08:19:50 AM 32.9500 -96.8333 180° South 84 97 1,400 911 Climbing Dallas / Fort Worth TRACON
Fri 08:20:45 AM 32.9333 -96.8167 140° Southeast 103 119 2,200 750 Climbing Dallas / Fort Worth TRACON
Fri 08:21:50 AM 32.9167 -96.8167 180° South 108 124 2,900 555 Climbing Dallas / Fort Worth TRACON
Fri 08:22:44 AM 32.8833 -96.8333 203° Southwest 103 119 3,300 522 Climbing Dallas / Fort Worth TRACON
Fri 08:23:45 AM 32.8667 -96.8500 220° Southwest 99 114 3,900 300 Climbing Dallas / Fort Worth TRACON
Fri 08:24:44 AM 32.8333 -96.8667 203° Southwest 131 151 3,900 -48 Level Dallas / Fort Worth TRACON
Fri 08:25:50 AM 32.7833 -96.8667 180° South 137 158 3,800  Descending Dallas / Fort Worth TRACON
Fri 08:26:51 AM 32.7500 -96.8833 203° Southwest 142 163 3,900 50 Climbing Dallas / Fort Worth TRACON
Fri 08:27:51 AM 32.7167 -96.8833 180° South 142 163 3,900 212 Level Dallas / Fort Worth TRACON
Fri 08:28:44 AM 32.6667 -96.8833 180° South 141 162 4,300 743 Climbing Dallas / Fort Worth TRACON
Fri 08:29:44 AM 32.6500 -96.8833 180° South 103 119 5,300 800 Climbing Dallas / Fort Worth TRACON
Fri 08:30:44 AM 32.6167 -96.8667 157° South 101 116 5,900 371 Climbing Dallas / Fort Worth TRACON
Fri 08:31:21 AM 32.5967 -96.8736 196° South 121 139 5,900 551 Level Fort Worth Center
Fri 08:32:22 AM 32.5575 -96.8636 168° South 128 147 6,800 829 Climbing Fort Worth Center
Fri 08:33:24 AM 32.5283 -96.8578 170° South 109 125 7,600 537 Climbing Fort Worth Center
Fri 08:34:25 AM 32.4981 -96.8525 172° South 114 131 7,900 146 Climbing Fort Worth Center
Fri 08:35:27 AM 32.4561 -96.8461 173° South 149 171 7,900  Level Fort Worth Center
Fri 08:36:28 AM 32.4092 -96.8414 175° South 157 181 7,900  Level Fort Worth Center
Fri 08:37:29 AM 32.3658 -96.8372 175° South 157 181 7,900 -49 Level Fort Worth Center
Fri 08:38:31 AM 32.3206 -96.8314 174° South 162 186 7,800 49 Descending Fort Worth Center
Fri 08:39:32 AM 32.2731 -96.8244 173° South 160 184 8,000 488 Climbing Fort Worth Center
Fri 08:40:34 AM 32.2367 -96.8111 163° South 134 154 8,800 439 Climbing Fort Worth Center
Fri 08:41:35 AM 32.1994 -96.7967 162° South 143 165 8,900  Climbing Fort Worth Center
Fri 08:42:37 AM 32.1561 -96.7811 163° South 159 183 8,800  Descending Fort Worth Center
Fri 08:43:38 AM 32.1133 -96.7700 168° South 158 182 8,900 49 Climbing Fort Worth Center
Fri 08:44:40 AM 32.0703 -96.7622 171° South 156 180 8,900  Level Fort Worth Center
Fri 08:45:41 AM 32.0256 -96.7564 174° South 160 184 8,900  Level Fort Worth Center
Fri 08:46:43 AM 31.9731 -96.7517 176° South 158 182 8,900 -49 Level Fort Worth Center
Fri 08:47:44 AM 31.9356 -96.7450 171° South 156 180 8,800  Descending Fort Worth Center
Fri 08:48:46 AM 31.8897 -96.7342 169° South 164 189 8,900  Climbing Fort Worth Center
Fri 08:49:47 AM 31.8461 -96.7225 167° South 162 186 8,800  Descending Fort Worth Center
Fri 08:50:49 AM 31.7944 -96.7103 169° South 160 184 8,900 48 Climbing Fort Worth Center
Fri 08:51:51 AM 31.7489 -96.6978 167° South 164 189 8,900  Level Fort Worth Center
Fri 08:52:52 AM 31.7033 -96.6864 168° South 165 190 8,900 -49 Level Fort Worth Center
Fri 08:53:54 AM 31.6583 -96.6714 164° South 166 191 8,800 -49 Descending Fort Worth Center
Fri 08:54:55 AM 31.6117 -96.6550 163° South 170 196 8,800  Level Fort Worth Center
Fri 08:55:57 AM 31.5672 -96.6383 162° South 168 193 8,800  Level Fort Worth Center
Fri 08:56:59 AM 31.5214 -96.6231 164° South 168 193 8,800  Level Fort Worth Center
Fri 08:58:00 AM 31.4758 -96.6086 165° South 168 193 8,800  Level Fort Worth Center
Fri 08:59:02 AM 31.4300 -96.5933 164° South 168 193 8,800  Level Fort Worth Center
Fri 09:00:04 AM 31.3842 -96.5775 164° South 170 196 8,800  Level Fort Worth Center
Fri 09:01:05 AM 31.3383 -96.5625 164° South 169 194 8,800  Level Fort Worth Center
Fri 09:02:07 AM 31.2850 -96.5419 162° South 172 198 8,800 48 Level Fort Worth Center
Fri 09:03:09 AM 31.2381 -96.5267 164° South 173 199 8,900 48 Climbing Fort Worth Center
Fri 09:04:11 AM 31.1919 -96.5156 168° South 169 194 8,900  Level Fort Worth Center
Fri 09:05:13 AM 31.1456 -96.5081 172° South 167 192 8,900  Level Fort Worth Center
Fri 09:06:14 AM 31.0986 -96.5003 172° South 168 193 8,900  Level Fort Worth Center
Fri 09:07:16 AM 31.0519 -96.4939 173° South 166 191 8,900  Level Fort Worth Center
Fri 09:08:18 AM 31.0056 -96.4875 173° South 166 191 8,900  Level Fort Worth Center
Fri 09:09:20 AM 30.9597 -96.4803 172° South 164 189 8,900  Level Fort Worth Center
Fri 09:10:22 AM 30.9142 -96.4708 170° South 164 189 8,900  Level Fort Worth Center
Fri 09:11:23 AM 30.8681 -96.4633 172° South 166 191 8,900  Level Fort Worth Center
Fri 09:11:56 AM 30.8372 -96.4575 171° South 166 191 8,900 -282 Level Houston Center
Fri 09:12:48 AM 30.7961 -96.4508 172° South 172 198 8,500 -537 Descending Houston Center
Fri 09:13:03 AM 30.7819 -96.4492 174° South 181 208 8,300 -677 Descending Houston Center
Fri 09:13:50 AM 30.7419 -96.4392 168° South 190 219 7,800 -689 Descending Houston Center
Fri 09:14:04 AM 30.7264 -96.4358 170° South 198 228 7,600 -581 Descending Houston Center
Fri 09:14:52 AM 30.6875 -96.4283 171° South 197 227 7,200 -545 Descending Houston Center
Fri 09:14:59 AM 30.6772 -96.4267 172° South 200 230 7,100 -265 Descending Houston Center
Fri 09:16:00 AM 30.6242 -96.4181 172° South 187 215 6,900 -103 Descending Houston Center
Fri 09:16:55 AM 30.5864 -96.4103 170° South 177 204 6,900  Level Houston Center
Fri 09:17:01 AM 30.5750 -96.4089 174° South 171 197 6,900  Level Houston Center
Fri 09:17:57 AM 30.5392 -96.3967 164° South 173 199 6,900  Level Houston Center
Fri 09:18:02 AM 30.5300 -96.3944 168° South 169 194 6,900 97 Level Houston Center
Fri 09:18:59 AM 30.4942 -96.3786 159° South 171 197 7,000  Climbing Houston Center
Fri 09:19:03 AM 30.4842 -96.3731 154° Southeast 172 198 6,900 -98 Descending Houston Center
Fri 09:20:00 AM 30.4408 -96.3564 162° South 174 200 6,900  Level Houston Center
Fri 09:20:11 AM 30.4322 -96.3544 169° South 169 194 6,900  Level Houston Center
Fri 09:21:02 AM 30.3953 -96.3397 161° South 170 196 6,900  Level Houston Center
Fri 09:21:06 AM 30.3911 -96.3397 180° South 170 196 6,900 194 Level Houston Center
Fri 09:22:04 AM 30.3486 -96.3275 166° South 171 197 7,100 98 Climbing Houston Center
Fri 09:22:07 AM 30.3436 -96.3256 161° South 171 197 7,000 -97 Descending Houston Center
Fri 09:23:06 AM 30.3033 -96.3097 161° South 171 197 7,000 -98 Level Houston Center
Fri 09:23:08 AM 30.3003 -96.3086 163° South 170 196 6,900  Descending Houston Center
Fri 09:24:07 AM 30.2572 -96.2911 161° South 173 199 7,000  Climbing Houston Center
Fri 09:24:09 AM 30.2528 -96.2922 192° South 172 198 6,900  Descending Houston Center
Fri 09:25:09 AM 30.2108 -96.2775 163° South 170 196 7,000  Climbing Houston Center
Fri 09:25:10 AM 30.2053 -96.2758 165° South 170 196 6,900 -107 Descending Houston Center
Fri 09:26:05 AM 30.1639 -96.2586 160° South 172 198 6,900 98 Level Houston Center
Fri 09:26:11 AM 30.1658 -96.2586 360° North 170 196 7,000 90 Climbing Houston Center
Fri 09:27:12 AM 30.1186 -96.2417 163° South 171 197 7,000 -393 Level Houston Center
Fri 09:28:13 AM 30.0622 -96.2219 163° South 185 213 6,200 -677 Descending Houston Center
Fri 09:28:14 AM 30.0703 -96.2231 353° North 181 208 6,300 -643 Climbing Houston Center
Fri 09:29:09 AM 30.0297 -96.1844 140° Southeast 193 222 5,600 -581 Descending Houston Center
Fri 09:29:16 AM 30.0311 -96.1842 10° North 191 220 5,700 -636 Climbing Houston Center
Fri 09:30:15 AM 29.9969 -96.1206 122° Southeast 197 227 4,900 -689 Descending Houston Center
Fri 09:30:17 AM 30.0011 -96.1311 295° West 196 226 5,000  Climbing Houston Center
Fri 09:31:17 AM 29.9758 -96.0700 116° Southeast 174 200 4,900  Descending Houston Center
Fri 09:31:19 AM 29.9756 -96.0683 101° East 180 207 5,000  Climbing Houston Center
Fri 09:32:12 AM 29.9550 -96.0242 118° Southeast 174 200 4,900  Descending Houston Center
Fri 09:32:21 AM 29.9539 -96.0186 103° East 173 199 5,000 -295 Climbing Houston Center
Fri 09:33:13 AM 29.9339 -95.9736 117° Southeast 175 201 4,600 -197 Descending Houston Center
Fri 09:33:22 AM 29.9350 -95.9744 327° Northwest 176 203 4,800 -269 Climbing Houston Center
Fri 09:34:20 AM 29.9119 -95.9133 114° Southeast 178 205 4,300 -484 Descending Houston Center
Fri 09:34:24 AM 29.9128 -95.9117 60° Northeast 177 204 4,300 -462 Level Houston Center
Fri 09:35:25 AM 29.8972 -95.8583 109° East 176 203 3,800 -566 Descending Houston Center
Fri 09:36:10 AM 29.8847 -95.8178 110° East 175 201 3,300 -581 Descending Houston Center
Fri 09:36:27 AM 29.8811 -95.8047 108° East 176 203 3,200 -269 Descending Houston Center
Fri 09:37:17 AM 29.8669 -95.7597 110° East 169 194 3,000 -194 Descending Houston Center
Fri 09:37:29 AM 29.8653 -95.7533 107° East 173 199 3,000 97 Level Houston Center
Fri 09:38:19 AM 29.8519 -95.7083 109° East 159 183 3,100  Climbing Houston Center
Fri 09:38:30 AM 29.8514 -95.7050 101° East 164 189 3,000  Descending Houston Center
Fri 09:39:20 AM 29.8369 -95.6597 110° East 160 184 3,100 97 Climbing Houston Center
Fri 09:39:32 AM 29.8372 -95.6575 82° East 159 183 3,100  Level Houston Center
Fri 09:40:20 AM 29.8242 -95.6106 108° East 160 184 3,100  Level Houston Center
Fri 09:40:33 AM 29.8247 -95.6078 77° East 160 184 3,100  Level Houston Center
Fri 09:41:22 AM 29.8111 -95.5592 108° East 161 185 3,100 -97 Level Houston Center
Fri 09:41:35 AM 29.8089 -95.5481 103° East 161 185 3,000  Descending Houston Center
Fri 09:42:23 AM 29.7981 -95.5078 107° East 165 190 3,100 97 Climbing Houston Center
Fri 09:42:37 AM 29.7956 -95.4969 105° East 163 188 3,100 -197 Level Houston Center
Fri 09:43:24 AM 29.7914 -95.4556 97° East 161 185 2,900 -197 Descending Houston Center
Fri 09:43:38 AM 29.7889 -95.4444 105° East 165 190 2,900 -393 Level Houston Center
Fri 09:44:25 AM 29.7667 -95.4153 131° Southeast 145 167 2,500 -484 Descending Houston Center
Fri 09:44:40 AM 29.7617 -95.4083 130° Southeast 156 180 2,400 -436 Descending Houston Center
Fri 09:45:20 AM 29.7392 -95.3897 144° Southeast 142 163 2,100 -295 Descending Houston Center
Fri 09:45:41 AM 29.7319 -95.3808 133° Southeast 146 168 2,100 -179 Level Houston Center
Fri 09:46:27 AM 29.7064 -95.3528 136° Southeast 144 166 1,900 -290 Descending Houston Center
Fri 09:46:43 AM 29.7042 -95.3486 122° Southeast 143 165 1,800 -590 Descending Houston Center
Fri 09:47:28 AM 29.6803 -95.3197 134° Southeast 137 158 1,300 -677 Descending Houston Center
Fri 09:47:45 AM 29.6769 -95.3156 133° Southeast 143 165 1,100 -885 Descending Houston Center
Fri 09:48:29 AM 29.6592 -95.2958 136° Southeast 104 120 400 -787 Descending Houston Center
Fri 09:48:46 AM 29.6564 -95.2911 124° Southeast 128 147 300 -353 Descending Houston Center

Login

Don't have an account? Register now (free) for customized features, flight alerts, and more!